Time;durP1;ratioP1;P1;durP2;ratioP2;P2;SDS_P1;SDS_P2;PMS_P1;PMS_P2;Temp;Humidity;BMP_temperature;BMP_pressure;BME280_temperature;BME280_humidity;BME280_pressure;Samples;Min_cycle;Max_cycle;Signal;HPM_P1;HPM_P2
2022/06/03 00:02:30;;;;;;;12.55;6.68;;;;;;;;;;10360562;28;20053;-77
2022/06/03 00:07:38;;;;;;;10.38;6.15;;;;;;;;;;10353291;28;20142;-76
2022/06/03 00:12:49;;;;;;;10.73;6.20;;;;;;;;;;10331673;28;20042;-76
2022/06/03 00:18:13;;;;;;;9.50;6.15;;;;;;;;;;10347551;28;20112;-78
2022/06/03 00:23:38;;;;;;;8.48;5.95;;;;;;;;;;10330591;28;20430;-77
2022/06/03 00:28:49;;;;;;;10.05;6.05;;;;;;;;;;10338666;28;20213;-78
2022/06/03 00:33:57;;;;;;;9.63;6.25;;;;;;;;;;10355522;28;20061;-78
2022/06/03 00:39:08;;;;;;;12.63;6.68;;;;;;;;;;10333095;28;20128;-76
2022/06/03 00:44:30;;;;;;;10.25;6.20;;;;;;;;;;10353744;28;20073;-77
2022/06/03 00:49:46;;;;;;;12.88;6.57;;;;;;;;;;10361271;28;20452;-79
2022/06/03 00:55:03;;;;;;;9.52;5.65;;;;;;;;;;10345996;28;20129;-77
2022/06/03 01:00:17;;;;;;;10.07;6.00;;;;;;;;;;10358926;28;20125;-77
2022/06/03 01:05:25;;;;;;;10.25;6.43;;;;;;;;;;10339625;28;20184;-79
2022/06/03 01:10:34;;;;;;;10.45;6.15;;;;;;;;;;10365464;28;20030;-78
2022/06/03 01:15:43;;;;;;;11.77;6.22;;;;;;;;;;10358459;28;20033;-78
2022/06/03 01:20:57;;;;;;;10.70;6.88;;;;;;;;;;10336193;28;20467;-78
2022/06/03 01:26:12;;;;;;;11.25;6.25;;;;;;;;;;10356094;28;20037;-76
2022/06/03 01:31:30;;;;;;;10.65;5.93;;;;;;;;;;10362847;28;20089;-76
2022/06/03 01:36:42;;;;;;;11.18;6.55;;;;;;;;;;10361652;28;20492;-77
2022/06/03 01:42:10;;;;;;;12.23;6.88;;;;;;;;;;10357629;28;20267;-77
2022/06/03 01:47:31;;;;;;;10.30;6.82;;;;;;;;;;10343854;28;20054;-77
2022/06/03 01:53:01;;;;;;;11.60;6.70;;;;;;;;;;10339441;28;20039;-75
2022/06/03 01:58:21;;;;;;;10.55;6.50;;;;;;;;;;10331444;28;20053;-78
2022/06/03 02:03:36;;;;;;;9.52;6.25;;;;;;;;;;10357027;28;20086;-78
2022/06/03 02:08:49;;;;;;;10.27;6.45;;;;;;;;;;10357095;28;20238;-78
2022/06/03 02:14:11;;;;;;;9.30;5.00;;;;;;;;;;10358705;28;20125;-78
2022/06/03 02:19:29;;;;;;;8.68;5.72;;;;;;;;;;10362855;28;20505;-78
2022/06/03 02:24:42;;;;;;;8.60;4.78;;;;;;;;;;10330730;28;20057;-78
2022/06/03 02:30:27;;;;;;;9.63;6.05;;;;;;;;;;10354363;28;20186;-78
2022/06/03 02:35:36;;;;;;;9.48;4.60;;;;;;;;;;10281208;28;20506;-78
2022/06/03 02:41:08;;;;;;;10.77;4.90;;;;;;;;;;10339713;28;20095;-78
2022/06/03 02:46:23;;;;;;;7.63;4.97;;;;;;;;;;10339698;28;20356;-78
2022/06/03 02:51:44;;;;;;;8.38;5.40;;;;;;;;;;10358812;28;20549;-78
2022/06/03 02:56:55;;;;;;;11.90;5.47;;;;;;;;;;10338092;28;20133;-76
2022/06/03 03:02:12;;;;;;;10.48;5.68;;;;;;;;;;10351933;28;20045;-78
2022/06/03 03:07:34;;;;;;;9.68;5.60;;;;;;;;;;10339083;28;20092;-77
2022/06/03 03:12:55;;;;;;;9.85;5.35;;;;;;;;;;10367090;28;20524;-77
2022/06/03 03:18:16;;;;;;;8.35;5.35;;;;;;;;;;10363490;28;20138;-78
2022/06/03 03:23:39;;;;;;;8.23;5.20;;;;;;;;;;10344469;28;20066;-76
2022/06/03 03:28:50;;;;;;;9.90;5.43;;;;;;;;;;10359468;28;20056;-77
2022/06/03 03:34:09;;;;;;;9.45;5.35;;;;;;;;;;10360750;28;20447;-77
2022/06/03 03:39:25;;;;;;;12.88;5.47;;;;;;;;;;10353809;28;20045;-78
2022/06/03 03:44:50;;;;;;;9.55;5.38;;;;;;;;;;10352953;28;20578;-78
2022/06/03 03:50:14;;;;;;;10.40;5.20;;;;;;;;;;10337728;28;20046;-77
2022/06/03 03:55:38;;;;;;;9.32;5.38;;;;;;;;;;10357579;28;20465;-78
2022/06/03 04:01:04;;;;;;;9.85;5.55;;;;;;;;;;10354420;28;20395;-78
2022/06/03 04:06:27;;;;;;;9.60;5.57;;;;;;;;;;10338701;28;20082;-77
2022/06/03 04:11:46;;;;;;;10.43;6.00;;;;;;;;;;10335772;28;20139;-78
2022/06/03 04:17:10;;;;;;;8.73;5.85;;;;;;;;;;10352964;28;20136;-77
2022/06/03 04:22:35;;;;;;;10.30;6.43;;;;;;;;;;10341698;28;20151;-78
2022/06/03 04:27:38;;;;;;;;;;;;;;;;;;10339182;28;20344;-78
2022/06/03 04:33:00;;;;;;;9.05;6.25;;;;;;;;;;10369573;28;19960;-78
2022/06/03 04:38:29;;;;;;;10.73;6.35;;;;;;;;;;10364498;28;20048;-79
2022/06/03 04:43:56;;;;;;;12.25;6.60;;;;;;;;;;10362616;28;20495;-79
2022/06/03 04:49:35;;;;;;;7.82;4.47;;;;;;;;;;10350929;28;20038;-77
2022/06/03 04:54:58;;;;;;;9.27;6.38;;;;;;;;;;10359163;28;20498;-79
2022/06/03 05:00:17;;;;;;;10.18;6.32;;;;;;;;;;10361641;28;20041;-78
2022/06/03 05:05:41;;;;;;;6.47;3.97;;;;;;;;;;10362108;28;20137;-78
2022/06/03 05:10:59;;;;;;;7.95;5.07;;;;;;;;;;10363383;28;20049;-78
2022/06/03 05:16:23;;;;;;;7.10;4.22;;;;;;;;;;10337268;28;20049;-78
2022/06/03 05:21:45;;;;;;;8.73;5.30;;;;;;;;;;10362263;28;20034;-80
2022/06/03 05:27:10;;;;;;;7.10;4.97;;;;;;;;;;10361844;28;20118;-79
2022/06/03 05:32:30;;;;;;;11.52;6.07;;;;;;;;;;10368602;28;20033;-79
2022/06/03 05:37:45;;;;;;;6.68;2.67;;;;;;;;;;10317102;28;20061;-79
2022/06/03 05:43:09;;;;;;;10.10;5.85;;;;;;;;;;10361002;28;20119;-80
2022/06/03 05:48:15;;;;;;;9.68;4.80;;;;;;;;;;10367198;28;20469;-80
2022/06/03 05:53:28;;;;;;;7.78;5.20;;;;;;;;;;10345769;28;20049;-80
2022/06/03 05:58:38;;;;;;;9.82;3.75;;;;;;;;;;10369405;28;20034;-80
2022/06/03 06:03:46;;;;;;;7.80;5.50;;;;;;;;;;10349761;28;20112;-79
2022/06/03 06:08:55;;;;;;;6.60;4.60;;;;;;;;;;10354821;28;20108;-79
2022/06/03 06:14:07;;;;;;;10.07;4.80;;;;;;;;;;10337543;28;20045;-79
2022/06/03 06:19:13;;;;;;;7.85;4.40;;;;;;;;;;10361593;28;20180;-77
2022/06/03 06:24:21;;;;;;;9.10;4.57;;;;;;;;;;10339673;28;20037;-78
2022/06/03 06:29:48;;;;;;;7.03;4.32;;;;;;;;;;10366466;28;20037;-78
2022/06/03 06:35:03;;;;;;;5.97;3.85;;;;;;;;;;10292385;28;20077;-78
2022/06/03 06:40:13;;;;;;;6.47;3.88;;;;;;;;;;10349847;28;20041;-79
2022/06/03 06:45:27;;;;;;;5.43;4.05;;;;;;;;;;10358629;28;20572;-80
2022/06/03 06:50:35;;;;;;;18.70;4.57;;;;;;;;;;10367300;28;20119;-79
2022/06/03 06:55:43;;;;;;;7.13;4.30;;;;;;;;;;10360614;28;20129;-80
2022/06/03 07:00:46;;;;;;;5.15;3.63;;;;;;;;;;10362218;28;20100;-79
2022/06/03 07:05:52;;;;;;;8.52;3.80;;;;;;;;;;10367735;28;20097;-80
2022/06/03 07:11:00;;;;;;;6.38;4.05;;;;;;;;;;10362302;28;20041;-79
2022/06/03 07:16:08;;;;;;;5.55;3.60;;;;;;;;;;10364018;28;20494;-77
2022/06/03 07:21:14;;;;;;;7.38;3.65;;;;;;;;;;10362471;28;20084;-78
2022/06/03 07:26:22;;;;;;;6.03;3.60;;;;;;;;;;10356727;28;20131;-78
2022/06/03 07:31:27;;;;;;;4.03;3.38;;;;;;;;;;10344096;28;20132;-80
2022/06/03 07:36:40;;;;;;;4.47;3.13;;;;;;;;;;10338154;28;20033;-78
2022/06/03 07:41:48;;;;;;;4.05;2.97;;;;;;;;;;10354876;28;20101;-80
2022/06/03 07:46:53;;;;;;;5.93;2.90;;;;;;;;;;10337209;28;20080;-79
2022/06/03 07:52:00;;;;;;;6.82;3.10;;;;;;;;;;10344448;28;20070;-78
2022/06/03 07:57:07;;;;;;;3.72;2.70;;;;;;;;;;10353667;28;20034;-78
2022/06/03 08:02:14;;;;;;;3.90;2.95;;;;;;;;;;10360676;28;20402;-77
2022/06/03 08:12:42;;;;;;;5.28;2.92;;;;;;;;;;10361522;28;20065;-78
2022/06/03 08:17:47;;;;;;;2.83;2.53;;;;;;;;;;10372133;28;20530;-80
2022/06/03 08:22:50;;;;;;;3.03;2.72;;;;;;;;;;10352304;28;20072;-77
2022/06/03 08:27:56;;;;;;;5.10;2.75;;;;;;;;;;10360311;28;20506;-79
2022/06/03 08:32:59;;;;;;;4.00;3.00;;;;;;;;;;10361450;28;20141;-79
2022/06/03 08:38:04;;;;;;;5.60;3.00;;;;;;;;;;10366288;28;20041;-79
2022/06/03 08:43:13;;;;;;;2.70;2.50;;;;;;;;;;10366573;28;20456;-79
2022/06/03 08:48:27;;;;;;;5.22;2.90;;;;;;;;;;10369623;28;20036;-79
2022/06/03 08:53:35;;;;;;;5.85;3.17;;;;;;;;;;10365797;28;20072;-77
2022/06/03 08:58:43;;;;;;;4.60;3.25;;;;;;;;;;10356832;28;20137;-77
2022/06/03 09:03:49;;;;;;;5.70;3.47;;;;;;;;;;10366507;28;20065;-78
2022/06/03 09:08:55;;;;;;;3.72;3.30;;;;;;;;;;10363272;28;20069;-77
2022/06/03 09:14:03;;;;;;;5.50;3.35;;;;;;;;;;10334213;28;20045;-78
2022/06/03 09:19:05;;;;;;;;;;;;;;;;;;10366322;28;20061;-79
2022/06/03 09:24:10;;;;;;;3.85;3.10;;;;;;;;;;10370772;28;19953;-79
2022/06/03 09:29:15;;;;;;;3.95;3.33;;;;;;;;;;10363162;28;20402;-77
2022/06/03 09:34:22;;;;;;;6.00;4.00;;;;;;;;;;10341703;28;20117;-78
2022/06/03 09:39:24;;;;;;;5.13;3.63;;;;;;;;;;10366984;28;20048;-78
2022/06/03 09:44:29;;;;;;;3.75;3.45;;;;;;;;;;10348689;28;20093;-80
2022/06/03 09:49:32;;;;;;;6.55;3.78;;;;;;;;;;10360919;28;20124;-79
2022/06/03 09:54:36;;;;;;;4.10;3.58;;;;;;;;;;10343305;28;20076;-75
2022/06/03 09:59:44;;;;;;;5.80;3.30;;;;;;;;;;10341230;28;20073;-79
2022/06/03 10:04:46;;;;;;;4.18;3.65;;;;;;;;;;10362465;28;20093;-78
2022/06/03 10:20:34;;;;;;;7.25;3.97;;;;;;;;;;10363180;28;20526;-80
2022/06/03 10:25:37;;;;;;;3.58;3.28;;;;;;;;;;10359358;28;20467;-75
2022/06/03 10:30:42;;;;;;;3.35;3.10;;;;;;;;;;10364352;28;20046;-77
2022/06/03 10:35:44;;;;;;;3.47;3.17;;;;;;;;;;10364233;28;20053;-79
2022/06/03 10:40:48;;;;;;;3.60;3.30;;;;;;;;;;10343796;28;20039;-79
2022/06/03 10:45:52;;;;;;;5.72;3.20;;;;;;;;;;10335838;28;20039;-79
2022/06/03 10:51:14;;;;;;;4.68;3.00;;;;;;;;;;10556191;27;20129;-79
2022/06/03 11:01:42;;;;;;;4.72;3.60;;;;;;;;;;10552518;28;20054;-79
2022/06/03 11:06:47;;;;;;;4.22;3.38;;;;;;;;;;10542849;28;20079;-78
2022/06/03 11:11:51;;;;;;;3.40;3.10;;;;;;;;;;10543118;28;20098;-78
2022/06/03 11:17:01;;;;;;;3.67;3.28;;;;;;;;;;10551577;28;20040;-79
2022/06/03 11:22:28;;;;;;;3.63;3.30;;;;;;;;;;10535702;28;20046;-78
2022/06/03 11:27:37;;;;;;;3.43;3.13;;;;;;;;;;10545041;28;20081;-79
2022/06/03 11:32:41;;;;;;;7.22;3.45;;;;;;;;;;10546545;28;20647;-78
2022/06/03 11:37:47;;;;;;;4.05;3.50;;;;;;;;;;10542783;28;20046;-77
2022/06/03 11:42:53;;;;;;;4.57;3.40;;;;;;;;;;10553402;28;20036;-78
2022/06/03 11:47:57;;;;;;;5.03;3.40;;;;;;;;;;10552752;28;20476;-80
2022/06/03 11:53:00;;;;;;;4.00;3.13;;;;;;;;;;10548978;28;20089;-80
2022/06/03 11:58:07;;;;;;;3.70;3.40;;;;;;;;;;10546161;28;20028;-79
2022/06/03 12:03:20;;;;;;;9.35;3.50;;;;;;;;;;10520444;28;20390;-78
2022/06/03 12:08:24;;;;;;;6.07;3.13;;;;;;;;;;10521721;28;20032;-78
2022/06/03 12:13:30;;;;;;;4.57;3.15;;;;;;;;;;10518776;28;20045;-78
2022/06/03 12:18:44;;;;;;;4.97;3.47;;;;;;;;;;10518973;28;20032;-77
2022/06/03 12:23:52;;;;;;;5.65;3.72;;;;;;;;;;10517122;28;20052;-78
2022/06/03 12:28:57;;;;;;;4.05;3.42;;;;;;;;;;10520701;28;20047;-78
2022/06/03 12:34:06;;;;;;;6.40;5.20;;;;;;;;;;10520113;28;20036;-78
2022/06/03 12:39:23;;;;;;;4.05;3.50;;;;;;;;;;10516166;28;20047;-79
2022/06/03 12:44:47;;;;;;;4.28;3.50;;;;;;;;;;10519828;28;20033;-77
2022/06/03 12:49:52;;;;;;;5.72;3.60;;;;;;;;;;10485370;28;20048;-78
2022/06/03 12:54:56;;;;;;;9.07;4.05;;;;;;;;;;10521446;28;20041;-79
2022/06/03 13:00:01;;;;;;;6.03;3.40;;;;;;;;;;10519445;28;20036;-79
2022/06/03 13:05:11;;;;;;;4.75;3.30;;;;;;;;;;10518485;28;20690;-79
2022/06/03 13:10:19;;;;;;;4.20;3.65;;;;;;;;;;10524252;28;20100;-78
2022/06/03 13:15:42;;;;;;;7.15;4.30;;;;;;;;;;10514327;28;20051;-78
2022/06/03 13:20:48;;;;;;;7.03;4.18;;;;;;;;;;10518361;28;20040;-78
2022/06/03 13:25:51;;;;;;;5.50;3.83;;;;;;;;;;10501692;28;20071;-79
2022/06/03 13:31:16;;;;;;;6.38;4.00;;;;;;;;;;10515575;28;20439;-79
2022/06/03 13:36:30;;;;;;;8.52;4.38;;;;;;;;;;10518876;28;20044;-79
2022/06/03 13:47:05;;;;;;;6.85;4.70;;;;;;;;;;10516351;28;20044;-78
2022/06/03 13:52:11;;;;;;;5.57;4.03;;;;;;;;;;10512533;28;20035;-78
2022/06/03 13:57:29;;;;;;;7.25;4.20;;;;;;;;;;10514865;28;20484;-78
2022/06/03 14:02:34;;;;;;;6.95;4.40;;;;;;;;;;10521008;28;20235;-79
2022/06/03 14:07:40;;;;;;;4.57;4.03;;;;;;;;;;10517606;28;20481;-81
2022/06/03 14:12:49;;;;;;;6.47;4.10;;;;;;;;;;10514932;28;20036;-77
2022/06/03 14:17:54;;;;;;;4.38;3.95;;;;;;;;;;10508734;28;20040;-78
2022/06/03 14:23:03;;;;;;;5.00;3.75;;;;;;;;;;10511644;28;20070;-78
2022/06/03 14:28:08;;;;;;;4.65;3.20;;;;;;;;;;10509891;28;20050;-77
2022/06/03 14:33:11;;;;;;;5.88;3.47;;;;;;;;;;10510178;28;20036;-77
2022/06/03 14:38:17;;;;;;;6.50;3.13;;;;;;;;;;10515870;28;20043;-78
2022/06/03 14:43:23;;;;;;;4.47;3.30;;;;;;;;;;10514499;28;20737;-80
2022/06/03 14:48:28;;;;;;;7.22;3.50;;;;;;;;;;10502201;28;20024;-77
2022/06/03 14:53:35;;;;;;;8.40;3.67;;;;;;;;;;10511041;28;20069;-80
2022/06/03 14:58:39;;;;;;;8.10;3.28;;;;;;;;;;10510447;28;20389;-77
2022/06/03 15:03:43;;;;;;;8.63;3.50;;;;;;;;;;10517894;28;20037;-79
2022/06/03 15:08:49;;;;;;;6.80;3.40;;;;;;;;;;10513524;28;20063;-78
2022/06/03 15:13:52;;;;;;;8.25;3.85;;;;;;;;;;10505828;28;20049;-79
2022/06/03 15:18:55;;;;;;;6.30;3.40;;;;;;;;;;10513407;28;20557;-79
2022/06/03 15:24:00;;;;;;;6.63;3.58;;;;;;;;;;10505724;28;20044;-78
2022/06/03 15:29:05;;;;;;;10.23;3.70;;;;;;;;;;10492547;28;20036;-76
2022/06/03 15:34:11;;;;;;;6.13;3.30;;;;;;;;;;10519317;28;20445;-78
2022/06/03 15:39:19;;;;;;;6.07;3.75;;;;;;;;;;10518385;28;20035;-78
2022/06/03 15:44:28;;;;;;;5.00;3.30;;;;;;;;;;10517764;28;20036;-77
2022/06/03 15:49:33;;;;;;;5.47;3.42;;;;;;;;;;10509979;28;20393;-78
2022/06/03 15:54:39;;;;;;;4.65;3.53;;;;;;;;;;10504024;28;20606;-80
2022/06/03 15:59:47;;;;;;;6.65;4.15;;;;;;;;;;10515601;28;20718;-77
2022/06/03 16:05:02;;;;;;;11.48;4.70;;;;;;;;;;10509716;28;20044;-79
2022/06/03 16:10:10;;;;;;;4.00;2.55;;;;;;;;;;10518867;28;20047;-79
2022/06/03 16:15:19;;;;;;;6.50;2.97;;;;;;;;;;10517724;28;20036;-78
2022/06/03 16:20:31;;;;;;;5.05;2.47;;;;;;;;;;10523747;28;20040;-79
2022/06/03 16:25:43;;;;;;;4.28;2.05;;;;;;;;;;10495838;28;20569;-76
2022/06/03 16:31:07;;;;;;;7.15;2.42;;;;;;;;;;10504822;28;20081;-77
2022/06/03 16:36:13;;;;;;;9.50;3.97;;;;;;;;;;10501534;28;20048;-77
2022/06/03 16:41:22;;;;;;;9.20;3.50;;;;;;;;;;10494135;28;20077;-78
2022/06/03 16:46:34;;;;;;;13.70;3.70;;;;;;;;;;10510045;28;20039;-78
2022/06/03 16:51:42;;;;;;;11.23;4.43;;;;;;;;;;10501966;28;20044;-77
2022/06/03 16:56:56;;;;;;;7.22;3.00;;;;;;;;;;10503277;28;20834;-77
2022/06/03 17:01:59;;;;;;;7.68;3.13;;;;;;;;;;10504689;28;20091;-77
2022/06/03 17:07:02;;;;;;;7.22;3.38;;;;;;;;;;10508514;28;20032;-76
2022/06/03 17:12:08;;;;;;;6.50;3.45;;;;;;;;;;10506837;28;20040;-74
2022/06/03 17:17:16;;;;;;;8.63;3.67;;;;;;;;;;10505221;28;20115;-75
2022/06/03 17:22:28;;;;;;;10.10;4.28;;;;;;;;;;10501169;28;20094;-77
2022/06/03 17:27:43;;;;;;;16.50;7.97;;;;;;;;;;10512682;28;20039;-77
2022/06/03 17:32:56;;;;;;;12.82;5.13;;;;;;;;;;10504782;28;20032;-76
2022/06/03 17:38:10;;;;;;;9.20;5.03;;;;;;;;;;10499707;28;20043;-78
2022/06/03 17:43:21;;;;;;;6.93;3.10;;;;;;;;;;10495413;28;20306;-76
2022/06/03 17:48:28;;;;;;;9.80;3.90;;;;;;;;;;10500674;28;20037;-75
2022/06/03 17:59:08;;;;;;;6.03;3.40;;;;;;;;;;10502443;28;20147;-76
2022/06/03 18:04:16;;;;;;;8.52;4.20;;;;;;;;;;10496144;28;20040;-77
2022/06/03 18:09:31;;;;;;;7.47;3.97;;;;;;;;;;10493413;28;20040;-75
2022/06/03 18:14:39;;;;;;;7.75;3.67;;;;;;;;;;10500300;28;20047;-76
2022/06/03 18:19:42;;;;;;;9.02;3.78;;;;;;;;;;10502921;28;20142;-77
2022/06/03 18:25:11;;;;;;;8.88;4.18;;;;;;;;;;10503008;28;20044;-76
2022/06/03 18:30:19;;;;;;;7.20;3.97;;;;;;;;;;10452964;28;20048;-77
2022/06/03 18:35:25;;;;;;;10.25;4.50;;;;;;;;;;10504581;28;20052;-76
2022/06/03 18:40:35;;;;;;;10.75;5.30;;;;;;;;;;10504378;28;20076;-76
2022/06/03 18:45:42;;;;;;;10.00;5.10;;;;;;;;;;10494919;28;20412;-77
2022/06/03 18:50:47;;;;;;;11.02;5.10;;;;;;;;;;10494515;28;20127;-75
2022/06/03 18:55:54;;;;;;;13.00;5.60;;;;;;;;;;10494609;28;20052;-75
2022/06/03 19:00:59;;;;;;;8.38;4.72;;;;;;;;;;10497943;28;20072;-75
2022/06/03 19:06:14;;;;;;;7.25;4.70;;;;;;;;;;10501249;28;20109;-77
2022/06/03 19:11:23;;;;;;;7.00;4.13;;;;;;;;;;10499580;28;20537;-76
2022/06/03 19:16:35;;;;;;;12.30;5.57;;;;;;;;;;10506376;28;20086;-75
2022/06/03 19:21:46;;;;;;;13.55;5.72;;;;;;;;;;10505666;28;20110;-75
2022/06/03 19:26:49;;;;;;;8.20;4.78;;;;;;;;;;10506222;28;20458;-74
2022/06/03 19:31:55;;;;;;;10.52;5.50;;;;;;;;;;10508005;28;20501;-74
2022/06/03 19:37:04;;;;;;;8.55;4.95;;;;;;;;;;10510108;28;20169;-75
2022/06/03 19:42:19;;;;;;;8.85;5.15;;;;;;;;;;10502058;28;20461;-74
2022/06/03 19:47:33;;;;;;;9.27;4.75;;;;;;;;;;10511148;28;20042;-76
2022/06/03 19:52:38;;;;;;;10.18;5.40;;;;;;;;;;10512460;28;20492;-75
2022/06/03 19:57:43;;;;;;;11.73;5.78;;;;;;;;;;10507377;28;20037;-75
2022/06/03 20:02:53;;;;;;;8.93;4.45;;;;;;;;;;10514759;28;20037;-75
2022/06/03 20:07:58;;;;;;;9.18;4.50;;;;;;;;;;10504825;28;20044;-75
2022/06/03 20:18:27;;;;;;;9.73;4.57;;;;;;;;;;10512085;28;20118;-76
2022/06/03 20:23:35;;;;;;;9.02;5.10;;;;;;;;;;10501805;28;20097;-75
2022/06/03 20:28:41;;;;;;;8.85;3.25;;;;;;;;;;10505197;28;20052;-75
2022/06/03 20:33:53;;;;;;;6.63;4.00;;;;;;;;;;10505334;28;20526;-76
2022/06/03 20:39:02;;;;;;;5.10;2.67;;;;;;;;;;10499896;28;20035;-77
2022/06/03 20:44:09;;;;;;;7.20;3.60;;;;;;;;;;10509726;28;20036;-77
2022/06/03 20:49:19;;;;;;;8.20;2.72;;;;;;;;;;10504152;28;20063;-75
2022/06/03 20:54:23;;;;;;;7.57;3.45;;;;;;;;;;10511257;28;20040;-76
2022/06/03 20:59:28;;;;;;;7.47;4.07;;;;;;;;;;10508080;28;20048;-75
2022/06/03 21:15:29;;;;;;;7.40;3.55;;;;;;;;;;10478312;28;20088;-76
2022/06/03 21:20:36;;;;;;;4.40;2.53;;;;;;;;;;10506979;28;20032;-76
2022/06/03 21:25:41;;;;;;;9.10;4.70;;;;;;;;;;10496054;28;20127;-77
2022/06/03 21:30:49;;;;;;;8.27;4.50;;;;;;;;;;10498500;28;20101;-77
2022/06/03 21:36:16;;;;;;;9.60;4.05;;;;;;;;;;10502329;28;20036;-76
2022/06/03 21:41:23;;;;;;;8.90;3.90;;;;;;;;;;10506772;28;20085;-76
2022/06/03 21:46:30;;;;;;;9.25;4.55;;;;;;;;;;10502982;28;20078;-77
2022/06/03 21:51:42;;;;;;;10.73;4.60;;;;;;;;;;10504738;28;20044;-76
2022/06/03 21:56:53;;;;;;;13.38;5.38;;;;;;;;;;10499184;28;20178;-77
2022/06/03 22:01:58;;;;;;;11.10;4.88;;;;;;;;;;10505938;28;20036;-75
2022/06/03 22:07:03;;;;;;;10.77;4.28;;;;;;;;;;10500669;28;20024;-77
2022/06/03 22:17:28;;;;;;;9.02;4.57;;;;;;;;;;10495609;28;20044;-76
2022/06/03 22:22:33;;;;;;;13.20;5.32;;;;;;;;;;10501964;28;20041;-73
2022/06/03 22:27:41;;;;;;;9.85;4.95;;;;;;;;;;10495581;28;20067;-76
2022/06/03 22:32:48;;;;;;;8.55;3.95;;;;;;;;;;10499899;28;20033;-75
2022/06/03 22:43:23;;;;;;;7.50;4.55;;;;;;;;;;10502902;28;20036;-76
2022/06/03 22:48:26;;;;;;;10.85;5.38;;;;;;;;;;10497684;28;20127;-74
2022/06/03 22:53:33;;;;;;;9.50;4.57;;;;;;;;;;10501122;28;20052;-76
2022/06/03 22:58:37;;;;;;;10.23;4.78;;;;;;;;;;10503008;28;20036;-75
2022/06/03 23:03:40;;;;;;;8.05;4.47;;;;;;;;;;10505403;28;20083;-76
2022/06/03 23:08:46;;;;;;;10.88;4.70;;;;;;;;;;10496450;28;20135;-76
2022/06/03 23:13:49;;;;;;;10.57;4.45;;;;;;;;;;10506587;28;20131;-77
2022/06/03 23:19:03;;;;;;;9.05;4.70;;;;;;;;;;10501562;28;20161;-75
2022/06/03 23:24:08;;;;;;;11.82;4.30;;;;;;;;;;10503635;28;20093;-77
2022/06/03 23:29:12;;;;;;;8.25;3.85;;;;;;;;;;10501532;28;20696;-76
2022/06/03 23:34:15;;;;;;;10.65;4.78;;;;;;;;;;10496354;28;20035;-76
2022/06/03 23:39:20;;;;;;;8.57;4.60;;;;;;;;;;10498122;28;20206;-76
2022/06/03 23:49:43;;;;;;;7.13;4.22;;;;;;;;;;10502616;28;20042;-77
2022/06/03 23:54:47;;;;;;;7.10;3.70;;;;;;;;;;10496738;28;20032;-76
2022/06/03 23:59:50;;;;;;;9.48;3.60;;;;;;;;;;10508393;28;20048;-76
